sensor_id;sensor_type;location;lat;lon;timestamp;pressure;altitude;pressure_sealevel;temperature;humidity
59650;BME280;46162;57.568;25.814;2023-11-21T00:00:13;101125.16;;;-8.69;100.00
59650;BME280;46162;57.568;25.814;2023-11-21T00:02:42;101115.47;;;-8.61;100.00
59650;BME280;46162;57.568;25.814;2023-11-21T00:05:12;101124.06;;;-8.51;100.00
59650;BME280;46162;57.568;25.814;2023-11-21T00:07:41;101123.16;;;-8.49;100.00
59650;BME280;46162;57.568;25.814;2023-11-21T00:10:12;101117.16;;;-8.55;100.00
59650;BME280;46162;57.568;25.814;2023-11-21T00:12:43;101121.13;;;-8.31;100.00
59650;BME280;46162;57.568;25.814;2023-11-21T00:15:11;101133.19;;;-8.21;100.00
59650;BME280;46162;57.568;25.814;2023-11-21T00:17:40;101121.22;;;-8.37;100.00
59650;BME280;46162;57.568;25.814;2023-11-21T00:20:10;101131.44;;;-8.19;100.00
59650;BME280;46162;57.568;25.814;2023-11-21T00:22:41;101128.00;;;-8.24;100.00
59650;BME280;46162;57.568;25.814;2023-11-21T00:25:12;101122.41;;;-8.00;100.00
59650;BME280;46162;57.568;25.814;2023-11-21T00:27:42;101132.22;;;-8.14;100.00
59650;BME280;46162;57.568;25.814;2023-11-21T00:30:12;101132.16;;;-8.09;100.00
59650;BME280;46162;57.568;25.814;2023-11-21T00:32:41;101128.91;;;-8.27;100.00
59650;BME280;46162;57.568;25.814;2023-11-21T00:35:10;101129.81;;;-8.29;100.00
59650;BME280;46162;57.568;25.814;2023-11-21T00:37:39;101131.53;;;-8.25;100.00
59650;BME280;46162;57.568;25.814;2023-11-21T00:40:08;101136.66;;;-8.19;100.00
59650;BME280;46162;57.568;25.814;2023-11-21T00:42:39;101134.81;;;-8.12;100.00
59650;BME280;46162;57.568;25.814;2023-11-21T00:45:09;101143.66;;;-8.21;100.00
59650;BME280;46162;57.568;25.814;2023-11-21T00:47:37;101146.22;;;-8.13;100.00
59650;BME280;46162;57.568;25.814;2023-11-21T00:50:07;101142.75;;;-8.18;100.00
59650;BME280;46162;57.568;25.814;2023-11-21T00:52:36;101146.22;;;-8.13;100.00
59650;BME280;46162;57.568;25.814;2023-11-21T00:55:06;101136.34;;;-7.96;100.00
59650;BME280;46162;57.568;25.814;2023-11-21T00:57:35;101145.25;;;-8.08;100.00
59650;BME280;46162;57.568;25.814;2023-11-21T01:00:07;101143.66;;;-8.18;100.00
59650;BME280;46162;57.568;25.814;2023-11-21T01:02:40;101149.59;;;-8.07;100.00
59650;BME280;46162;57.568;25.814;2023-11-21T01:05:10;101149.56;;;-8.05;100.00
59650;BME280;46162;57.568;25.814;2023-11-21T01:07:39;101149.19;;;-7.81;100.00
59650;BME280;46162;57.568;25.814;2023-11-21T01:10:08;101155.59;;;-7.98;100.00
59650;BME280;46162;57.568;25.814;2023-11-21T01:12:38;101156.41;;;-7.96;100.00
59650;BME280;46162;57.568;25.814;2023-11-21T01:15:09;101151.88;;;-7.85;100.00
59650;BME280;46162;57.568;25.814;2023-11-21T01:17:39;101147.56;;;-7.89;100.00
59650;BME280;46162;57.568;25.814;2023-11-21T01:20:09;101155.25;;;-7.77;100.00
59650;BME280;46162;57.568;25.814;2023-11-21T01:22:39;101154.41;;;-7.79;100.00
59650;BME280;46162;57.568;25.814;2023-11-21T01:25:08;101154.44;;;-7.82;100.00
59650;BME280;46162;57.568;25.814;2023-11-21T01:27:38;101149.25;;;-7.84;100.00
59650;BME280;46162;57.568;25.814;2023-11-21T01:30:09;101155.81;;;-7.57;100.00
59650;BME280;46162;57.568;25.814;2023-11-21T01:32:38;101149.72;;;-7.59;100.00
59650;BME280;46162;57.568;25.814;2023-11-21T01:35:08;101141.88;;;-7.62;100.00
59650;BME280;46162;57.568;25.814;2023-11-21T01:37:38;101152.34;;;-7.60;100.00
59650;BME280;46162;57.568;25.814;2023-11-21T01:40:08;101151.63;;;-7.70;100.00
59650;BME280;46162;57.568;25.814;2023-11-21T01:42:42;101159.63;;;-7.76;100.00
59650;BME280;46162;57.568;25.814;2023-11-21T01:45:13;101163.16;;;-7.80;100.00
59650;BME280;46162;57.568;25.814;2023-11-21T01:47:44;101165.78;;;-7.80;100.00
59650;BME280;46162;57.568;25.814;2023-11-21T01:50:16;101164.75;;;-7.70;100.00
59650;BME280;46162;57.568;25.814;2023-11-21T01:52:46;101161.25;;;-7.69;100.00
59650;BME280;46162;57.568;25.814;2023-11-21T01:55:16;101168.34;;;-7.75;100.00
59650;BME280;46162;57.568;25.814;2023-11-21T01:57:55;101160.47;;;-7.77;100.00
59650;BME280;46162;57.568;25.814;2023-11-21T02:00:26;101157.75;;;-7.69;100.00
59650;BME280;46162;57.568;25.814;2023-11-21T02:02:56;101157.59;;;-7.62;100.00
59650;BME280;46162;57.568;25.814;2023-11-21T02:05:27;101160.94;;;-7.50;100.00
59650;BME280;46162;57.568;25.814;2023-11-21T02:07:58;101154.69;;;-7.43;100.00
59650;BME280;46162;57.568;25.814;2023-11-21T02:10:28;101156.47;;;-7.45;100.00
59650;BME280;46162;57.568;25.814;2023-11-21T02:12:58;101161.66;;;-7.42;100.00
59650;BME280;46162;57.568;25.814;2023-11-21T02:15:31;101171.09;;;-7.32;100.00
59650;BME280;46162;57.568;25.814;2023-11-21T02:18:00;101168.59;;;-7.38;100.00
59650;BME280;46162;57.568;25.814;2023-11-21T02:20:30;101173.13;;;-7.49;100.00
59650;BME280;46162;57.568;25.814;2023-11-21T02:23:04;101175.56;;;-7.37;100.00
59650;BME280;46162;57.568;25.814;2023-11-21T02:25:33;101171.00;;;-7.26;100.00
59650;BME280;46162;57.568;25.814;2023-11-21T02:28:04;101164.13;;;-7.35;100.00
59650;BME280;46162;57.568;25.814;2023-11-21T02:30:35;101184.13;;;-7.26;100.00
59650;BME280;46162;57.568;25.814;2023-11-21T02:33:04;101180.91;;;-7.42;100.00
59650;BME280;46162;57.568;25.814;2023-11-21T02:35:33;101169.28;;;-7.27;100.00
59650;BME280;46162;57.568;25.814;2023-11-21T02:38:02;101163.94;;;-7.22;100.00
59650;BME280;46162;57.568;25.814;2023-11-21T02:40:32;101154.03;;;-7.08;100.00
59650;BME280;46162;57.568;25.814;2023-11-21T02:43:01;101167.53;;;-7.26;100.00
59650;BME280;46162;57.568;25.814;2023-11-21T02:45:29;101158.66;;;-7.19;100.00
59650;BME280;46162;57.568;25.814;2023-11-21T02:47:58;101168.22;;;-7.17;100.00
59650;BME280;46162;57.568;25.814;2023-11-21T02:50:27;101175.25;;;-7.19;100.00
59650;BME280;46162;57.568;25.814;2023-11-21T02:52:57;101171.69;;;-7.16;100.00
59650;BME280;46162;57.568;25.814;2023-11-21T02:55:27;101175.81;;;-7.01;100.00
59650;BME280;46162;57.568;25.814;2023-11-21T02:57:58;101182.97;;;-7.11;100.00
59650;BME280;46162;57.568;25.814;2023-11-21T03:00:27;101173.03;;;-6.94;100.00
59650;BME280;46162;57.568;25.814;2023-11-21T03:02:56;101184.75;;;-7.11;100.00
59650;BME280;46162;57.568;25.814;2023-11-21T03:05:25;101187.25;;;-7.05;100.00
59650;BME280;46162;57.568;25.814;2023-11-21T03:07:56;101185.81;;;-7.22;100.00
59650;BME280;46162;57.568;25.814;2023-11-21T03:10:25;101192.75;;;-7.19;100.00
59650;BME280;46162;57.568;25.814;2023-11-21T03:12:55;101193.63;;;-7.20;100.00
59650;BME280;46162;57.568;25.814;2023-11-21T03:15:25;101195.47;;;-7.25;100.00
59650;BME280;46162;57.568;25.814;2023-11-21T03:17:54;101194.53;;;-7.21;100.00
59650;BME280;46162;57.568;25.814;2023-11-21T03:20:23;101188.09;;;-7.05;100.00
59650;BME280;46162;57.568;25.814;2023-11-21T03:22:52;101192.63;;;-7.11;100.00
59650;BME280;46162;57.568;25.814;2023-11-21T03:25:21;101198.50;;;-6.99;100.00
59650;BME280;46162;57.568;25.814;2023-11-21T03:27:51;101207.81;;;-7.30;100.00
59650;BME280;46162;57.568;25.814;2023-11-21T03:30:20;101217.50;;;-7.36;100.00
59650;BME280;46162;57.568;25.814;2023-11-21T03:32:50;101220.94;;;-7.32;100.00
59650;BME280;46162;57.568;25.814;2023-11-21T03:35:20;101213.91;;;-7.30;100.00
59650;BME280;46162;57.568;25.814;2023-11-21T03:37:49;101213.16;;;-7.37;100.00
59650;BME280;46162;57.568;25.814;2023-11-21T03:40:17;101212.97;;;-7.26;100.00
59650;BME280;46162;57.568;25.814;2023-11-21T03:42:46;101218.16;;;-7.21;100.00
59650;BME280;46162;57.568;25.814;2023-11-21T03:45:15;101227.03;;;-7.30;100.00
59650;BME280;46162;57.568;25.814;2023-11-21T03:47:44;101225.06;;;-7.17;100.00
59650;BME280;46162;57.568;25.814;2023-11-21T03:50:14;101221.28;;;-7.02;100.00
59650;BME280;46162;57.568;25.814;2023-11-21T03:52:43;101220.47;;;-7.04;100.00
59650;BME280;46162;57.568;25.814;2023-11-21T03:55:12;101214.44;;;-7.09;100.00
59650;BME280;46162;57.568;25.814;2023-11-21T03:57:42;101208.22;;;-7.04;100.00
59650;BME280;46162;57.568;25.814;2023-11-21T04:00:11;101205.75;;;-7.13;100.00
59650;BME280;46162;57.568;25.814;2023-11-21T04:02:40;101211.84;;;-7.09;100.00
59650;BME280;46162;57.568;25.814;2023-11-21T04:05:09;101214.41;;;-7.06;100.00
59650;BME280;46162;57.568;25.814;2023-11-21T04:07:39;101194.66;;;-6.81;100.00
59650;BME280;46162;57.568;25.814;2023-11-21T04:10:09;101208.00;;;-6.93;100.00
59650;BME280;46162;57.568;25.814;2023-11-21T04:12:40;101199.25;;;-6.92;100.00
59650;BME280;46162;57.568;25.814;2023-11-21T04:15:09;101205.28;;;-6.87;100.00
59650;BME280;46162;57.568;25.814;2023-11-21T04:17:39;101207.84;;;-6.82;100.00
59650;BME280;46162;57.568;25.814;2023-11-21T04:20:08;101215.88;;;-6.93;100.00
59650;BME280;46162;57.568;25.814;2023-11-21T04:22:39;101222.16;;;-7.00;100.00
59650;BME280;46162;57.568;25.814;2023-11-21T04:25:13;101221.28;;;-7.01;100.00
59650;BME280;46162;57.568;25.814;2023-11-21T04:27:45;101228.84;;;-6.82;100.00
59650;BME280;46162;57.568;25.814;2023-11-21T04:30:15;101223.69;;;-6.88;100.00
59650;BME280;46162;57.568;25.814;2023-11-21T04:32:43;101222.78;;;-6.87;100.00
59650;BME280;46162;57.568;25.814;2023-11-21T04:35:12;101220.19;;;-6.89;100.00
59650;BME280;46162;57.568;25.814;2023-11-21T04:37:43;101222.59;;;-6.77;100.00
59650;BME280;46162;57.568;25.814;2023-11-21T04:40:12;101218.91;;;-6.68;100.00
59650;BME280;46162;57.568;25.814;2023-11-21T04:42:41;101219.16;;;-6.80;100.00
59650;BME280;46162;57.568;25.814;2023-11-21T04:45:10;101228.78;;;-6.81;100.00
59650;BME280;46162;57.568;25.814;2023-11-21T04:47:40;101225.19;;;-6.75;100.00
59650;BME280;46162;57.568;25.814;2023-11-21T04:50:09;101225.59;;;-6.98;100.00
59650;BME280;46162;57.568;25.814;2023-11-21T04:52:38;101237.22;;;-6.63;100.00
59650;BME280;46162;57.568;25.814;2023-11-21T04:55:08;101235.66;;;-6.74;100.00
59650;BME280;46162;57.568;25.814;2023-11-21T04:57:41;101237.56;;;-6.82;100.00
59650;BME280;46162;57.568;25.814;2023-11-21T05:00:12;101233.09;;;-6.77;100.00
59650;BME280;46162;57.568;25.814;2023-11-21T05:02:43;101240.94;;;-6.75;100.00
59650;BME280;46162;57.568;25.814;2023-11-21T05:05:12;101239.22;;;-6.78;100.00
59650;BME280;46162;57.568;25.814;2023-11-21T05:07:41;101239.13;;;-6.72;100.00
59650;BME280;46162;57.568;25.814;2023-11-21T05:10:12;101240.75;;;-6.64;100.00
59650;BME280;46162;57.568;25.814;2023-11-21T05:12:42;101249.47;;;-6.62;100.00
59650;BME280;46162;57.568;25.814;2023-11-21T05:15:14;101249.03;;;-6.41;100.00
59650;BME280;46162;57.568;25.814;2023-11-21T05:17:45;101258.13;;;-6.14;100.00
59650;BME280;46162;57.568;25.814;2023-11-21T05:20:14;101261.72;;;-6.63;100.00
59650;BME280;46162;57.568;25.814;2023-11-21T05:22:45;101266.09;;;-6.62;100.00
59650;BME280;46162;57.568;25.814;2023-11-21T05:25:17;101263.00;;;-6.39;100.00
59650;BME280;46162;57.568;25.814;2023-11-21T05:27:49;101262.13;;;-6.38;100.00
59650;BME280;46162;57.568;25.814;2023-11-21T05:30:18;101265.69;;;-6.42;100.00
59650;BME280;46162;57.568;25.814;2023-11-21T05:32:46;101262.94;;;-6.36;100.00
59650;BME280;46162;57.568;25.814;2023-11-21T05:35:17;101262.41;;;-6.53;100.00
59650;BME280;46162;57.568;25.814;2023-11-21T05:37:46;101271.81;;;-6.40;100.00
59650;BME280;46162;57.568;25.814;2023-11-21T05:40:17;101265.56;;;-6.34;100.00
59650;BME280;46162;57.568;25.814;2023-11-21T05:42:46;101269.81;;;-6.29;100.00
59650;BME280;46162;57.568;25.814;2023-11-21T05:45:15;101284.88;;;-6.37;100.00
59650;BME280;46162;57.568;25.814;2023-11-21T05:47:45;101284.53;;;-6.20;100.00
59650;BME280;46162;57.568;25.814;2023-11-21T05:50:17;101283.97;;;-6.36;100.00
59650;BME280;46162;57.568;25.814;2023-11-21T05:52:47;101290.13;;;-6.37;100.00
59650;BME280;46162;57.568;25.814;2023-11-21T05:55:17;101282.09;;;-6.31;100.00
59650;BME280;46162;57.568;25.814;2023-11-21T05:57:48;101282.94;;;-6.29;100.00
59650;BME280;46162;57.568;25.814;2023-11-21T06:00:17;101291.91;;;-6.39;100.00
59650;BME280;46162;57.568;25.814;2023-11-21T06:02:49;101293.78;;;-6.45;100.00
59650;BME280;46162;57.568;25.814;2023-11-21T06:05:22;101296.47;;;-6.49;100.00
59650;BME280;46162;57.568;25.814;2023-11-21T06:07:53;101296.47;;;-6.49;100.00
59650;BME280;46162;57.568;25.814;2023-11-21T06:10:24;101304.41;;;-6.50;100.00
59650;BME280;46162;57.568;25.814;2023-11-21T06:12:53;101306.25;;;-6.55;100.00
59650;BME280;46162;57.568;25.814;2023-11-21T06:15:22;101308.94;;;-6.60;100.00
59650;BME280;46162;57.568;25.814;2023-11-21T06:17:51;101311.44;;;-6.52;100.00
59650;BME280;46162;57.568;25.814;2023-11-21T06:20:21;101307.81;;;-6.45;100.00
59650;BME280;46162;57.568;25.814;2023-11-21T06:22:51;101310.53;;;-6.51;100.00
59650;BME280;46162;57.568;25.814;2023-11-21T06:25:20;101310.31;;;-6.39;100.00
59650;BME280;46162;57.568;25.814;2023-11-21T06:27:50;101312.94;;;-6.39;100.00
59650;BME280;46162;57.568;25.814;2023-11-21T06:30:21;101309.28;;;-6.32;100.00
59650;BME280;46162;57.568;25.814;2023-11-21T06:32:50;101325.03;;;-6.30;100.00
59650;BME280;46162;57.568;25.814;2023-11-21T06:35:20;101315.94;;;-6.14;100.00
59650;BME280;46162;57.568;25.814;2023-11-21T06:37:49;101328.22;;;-6.13;100.00
59650;BME280;46162;57.568;25.814;2023-11-21T06:40:19;101334.16;;;-6.04;100.00
59650;BME280;46162;57.568;25.814;2023-11-21T06:42:50;101333.38;;;-6.08;100.00
59650;BME280;46162;57.568;25.814;2023-11-21T06:45:19;101336.97;;;-6.14;100.00
59650;BME280;46162;57.568;25.814;2023-11-21T06:47:49;101339.59;;;-6.14;100.00
59650;BME280;46162;57.568;25.814;2023-11-21T06:50:18;101335.97;;;-6.07;100.00
59650;BME280;46162;57.568;25.814;2023-11-21T06:52:48;101334.94;;;-5.99;100.00
59650;BME280;46162;57.568;25.814;2023-11-21T06:55:17;101339.16;;;-5.92;100.00
59650;BME280;46162;57.568;25.814;2023-11-21T06:57:45;101334.09;;;-6.00;100.00
59650;BME280;46162;57.568;25.814;2023-11-21T07:00:17;101343.06;;;-6.10;100.00
59650;BME280;46162;57.568;25.814;2023-11-21T07:02:46;101335.66;;;-5.93;100.00
59650;BME280;46162;57.568;25.814;2023-11-21T07:05:15;101349.94;;;-6.03;100.00
59650;BME280;46162;57.568;25.814;2023-11-21T07:07:48;101339.13;;;-5.91;100.00
59650;BME280;46162;57.568;25.814;2023-11-21T07:10:18;101339.16;;;-5.92;100.00
59650;BME280;46162;57.568;25.814;2023-11-21T07:12:47;101337.19;;;-5.82;100.00
59650;BME280;46162;57.568;25.814;2023-11-21T07:15:17;101345.19;;;-5.87;100.00
59650;BME280;46162;57.568;25.814;2023-11-21T07:17:46;101331.16;;;-5.88;100.00
59650;BME280;46162;57.568;25.814;2023-11-21T07:20:16;101337.13;;;-5.79;100.00
59650;BME280;46162;57.568;25.814;2023-11-21T07:22:45;101330.84;;;-5.72;100.00
59650;BME280;46162;57.568;25.814;2023-11-21T07:25:14;101336.84;;;-5.66;100.00
59650;BME280;46162;57.568;25.814;2023-11-21T07:27:43;101333.34;;;-5.66;100.00
59650;BME280;46162;57.568;25.814;2023-11-21T07:30:13;101331.34;;;-5.56;100.00
59650;BME280;46162;57.568;25.814;2023-11-21T07:32:43;101333.94;;;-5.53;100.00
59650;BME280;46162;57.568;25.814;2023-11-21T07:35:13;101334.91;;;-5.57;100.00
59650;BME280;46162;57.568;25.814;2023-11-21T07:37:42;101330.41;;;-5.52;100.00
59650;BME280;46162;57.568;25.814;2023-11-21T07:40:12;101326.00;;;-5.52;100.00
59650;BME280;46162;57.568;25.814;2023-11-21T07:42:41;101326.72;;;-5.44;100.00
59650;BME280;46162;57.568;25.814;2023-11-21T07:45:10;101325.59;;;-5.33;100.00
59650;BME280;46162;57.568;25.814;2023-11-21T07:47:39;101331.22;;;-5.49;100.00
59650;BME280;46162;57.568;25.814;2023-11-21T07:50:10;101332.59;;;-5.32;100.00
59650;BME280;46162;57.568;25.814;2023-11-21T07:52:41;101323.56;;;-5.22;100.00
59650;BME280;46162;57.568;25.814;2023-11-21T07:55:09;101325.25;;;-5.18;100.00
59650;BME280;46162;57.568;25.814;2023-11-21T07:57:38;101329.81;;;-5.26;100.00
59650;BME280;46162;57.568;25.814;2023-11-21T08:00:08;101325.41;;;-5.24;100.00
59650;BME280;46162;57.568;25.814;2023-11-21T08:02:40;101330.50;;;-5.18;100.00
59650;BME280;46162;57.568;25.814;2023-11-21T08:05:12;101328.63;;;-5.13;100.00
59650;BME280;46162;57.568;25.814;2023-11-21T08:07:54;101333.69;;;-5.04;100.00
59650;BME280;46162;57.568;25.814;2023-11-21T08:10:23;101335.47;;;-5.06;100.00
59650;BME280;46162;57.568;25.814;2023-11-21T08:12:52;101326.97;;;-5.17;100.00
59650;BME280;46162;57.568;25.814;2023-11-21T08:15:21;101330.78;;;-5.30;100.00
59650;BME280;46162;57.568;25.814;2023-11-21T08:17:49;101333.03;;;-5.52;100.00
59650;BME280;46162;57.568;25.814;2023-11-21T08:20:20;101331.00;;;-5.40;100.00
59650;BME280;46162;57.568;25.814;2023-11-21T08:22:50;101339.72;;;-5.37;100.00
59650;BME280;46162;57.568;25.814;2023-11-21T08:25:20;101340.47;;;-5.32;100.00
59650;BME280;46162;57.568;25.814;2023-11-21T08:27:49;101339.72;;;-5.37;100.00
59650;BME280;46162;57.568;25.814;2023-11-21T08:30:18;101344.91;;;-5.34;100.00
59650;BME280;46162;57.568;25.814;2023-11-21T08:32:48;101341.41;;;-5.35;100.00
59650;BME280;46162;57.568;25.814;2023-11-21T08:35:20;101325.41;;;-5.24;100.00
59650;BME280;46162;57.568;25.814;2023-11-21T08:37:51;101336.88;;;-5.28;100.00
59650;BME280;46162;57.568;25.814;2023-11-21T08:40:20;101338.59;;;-5.27;100.00
59650;BME280;46162;57.568;25.814;2023-11-21T08:42:49;101340.56;;;-5.35;100.00
59650;BME280;46162;57.568;25.814;2023-11-21T08:45:19;101338.22;;;-5.49;100.00
59650;BME280;46162;57.568;25.814;2023-11-21T08:47:49;101334.66;;;-5.47;100.00
59650;BME280;46162;57.568;25.814;2023-11-21T08:50:18;101335.56;;;-5.46;100.00
59650;BME280;46162;57.568;25.814;2023-11-21T08:52:48;101336.34;;;-5.43;100.00
59650;BME280;46162;57.568;25.814;2023-11-21T08:55:17;101338.75;;;-5.33;100.00
59650;BME280;46162;57.568;25.814;2023-11-21T08:57:47;101335.13;;;-5.29;100.00
59650;BME280;46162;57.568;25.814;2023-11-21T09:00:16;101332.50;;;-5.29;100.00
59650;BME280;46162;57.568;25.814;2023-11-21T09:02:49;101337.78;;;-5.29;100.00
59650;BME280;46162;57.568;25.814;2023-11-21T09:05:17;101336.84;;;-5.27;100.00
59650;BME280;46162;57.568;25.814;2023-11-21T09:07:49;101341.41;;;-5.33;100.00
59650;BME280;46162;57.568;25.814;2023-11-21T09:10:18;101348.25;;;-5.26;100.00
59650;BME280;46162;57.568;25.814;2023-11-21T09:12:48;101348.25;;;-5.26;100.00
59650;BME280;46162;57.568;25.814;2023-11-21T09:15:16;101356.06;;;-5.23;100.00
59650;BME280;46162;57.568;25.814;2023-11-21T09:17:45;101356.06;;;-5.22;100.00
59650;BME280;46162;57.568;25.814;2023-11-21T09:20:14;101347.88;;;-5.11;100.00
59650;BME280;46162;57.568;25.814;2023-11-21T09:22:43;101340.97;;;-5.15;100.00
59650;BME280;46162;57.568;25.814;2023-11-21T09:25:15;101343.47;;;-5.09;100.00
59650;BME280;46162;57.568;25.814;2023-11-21T09:27:44;101345.19;;;-5.08;100.00
59650;BME280;46162;57.568;25.814;2023-11-21T09:30:14;101342.41;;;-5.02;100.00
59650;BME280;46162;57.568;25.814;2023-11-21T09:32:43;101340.59;;;-5.00;100.00
59650;BME280;46162;57.568;25.814;2023-11-21T09:35:13;101339.50;;;-4.91;100.00
59650;BME280;46162;57.568;25.814;2023-11-21T09:37:43;101344.69;;;-4.88;100.00
59650;BME280;46162;57.568;25.814;2023-11-21T09:40:21;101339.44;;;-4.88;100.00
59650;BME280;46162;57.568;25.814;2023-11-21T09:42:54;101344.63;;;-4.85;100.00
59650;BME280;46162;57.568;25.814;2023-11-21T09:45:28;101343.63;;;-4.79;100.00
59650;BME280;46162;57.568;25.814;2023-11-21T09:47:58;101351.47;;;-4.78;100.00
59650;BME280;46162;57.568;25.814;2023-11-21T09:50:28;101352.34;;;-4.77;100.00
59650;BME280;46162;57.568;25.814;2023-11-21T09:53:11;101347.88;;;-4.75;100.00
59650;BME280;46162;57.568;25.814;2023-11-21T09:55:45;101347.00;;;-4.74;100.00
59650;BME280;46162;57.568;25.814;2023-11-21T09:58:14;101356.50;;;-4.68;100.00
59650;BME280;46162;57.568;25.814;2023-11-21T10:00:44;101357.44;;;-4.69;100.00
59650;BME280;46162;57.568;25.814;2023-11-21T10:03:14;101351.25;;;-4.68;100.00
59650;BME280;46162;57.568;25.814;2023-11-21T10:05:44;101348.59;;;-4.67;100.00
59650;BME280;46162;57.568;25.814;2023-11-21T10:08:16;101341.44;;;-4.63;100.00
59650;BME280;46162;57.568;25.814;2023-11-21T10:10:49;101343.94;;;-4.57;100.00
59650;BME280;46162;57.568;25.814;2023-11-21T10:13:21;101342.91;;;-4.51;100.00
59650;BME280;46162;57.568;25.814;2023-11-21T10:15:51;101342.09;;;-4.54;100.00
59650;BME280;46162;57.568;25.814;2023-11-21T10:18:20;101334.97;;;-4.50;100.00
59650;BME280;46162;57.568;25.814;2023-11-21T10:20:53;101339.31;;;-4.47;100.00
59650;BME280;46162;57.568;25.814;2023-11-21T10:23:23;101336.91;;;-4.57;100.00
59650;BME280;46162;57.568;25.814;2023-11-21T10:25:54;101342.09;;;-4.55;100.00
59650;BME280;46162;57.568;25.814;2023-11-21T10:28:35;101345.53;;;-4.50;100.00
59650;BME280;46162;57.568;25.814;2023-11-21T10:31:06;101342.00;;;-4.50;100.00
59650;BME280;46162;57.568;25.814;2023-11-21T10:33:36;101336.59;;;-4.46;100.00
59650;BME280;46162;57.568;25.814;2023-11-21T10:36:07;101344.69;;;-4.52;100.00
59650;BME280;46162;57.568;25.814;2023-11-21T10:38:42;101341.84;;;-4.44;100.00
59650;BME280;46162;57.568;25.814;2023-11-21T10:41:14;101346.28;;;-4.46;100.00
59650;BME280;46162;57.568;25.814;2023-11-21T10:43:43;101346.16;;;-4.42;100.00
59650;BME280;46162;57.568;25.814;2023-11-21T10:46:13;101340.03;;;-4.42;100.00
59650;BME280;46162;57.568;25.814;2023-11-21T10:48:42;101340.69;;;-4.34;100.00
59650;BME280;46162;57.568;25.814;2023-11-21T10:51:11;101344.41;;;-4.41;100.00
59650;BME280;46162;57.568;25.814;2023-11-21T10:53:40;101340.94;;;-4.43;100.00
59650;BME280;46162;57.568;25.814;2023-11-21T10:56:15;101336.66;;;-4.47;100.00
59650;BME280;46162;57.568;25.814;2023-11-21T10:58:46;101342.59;;;-4.39;100.00
59650;BME280;46162;57.568;25.814;2023-11-21T11:01:17;101340.06;;;-4.44;100.00
59650;BME280;46162;57.568;25.814;2023-11-21T11:03:50;101341.63;;;-4.37;100.00
59650;BME280;46162;57.568;25.814;2023-11-21T11:06:24;101343.34;;;-4.36;100.00
59650;BME280;46162;57.568;25.814;2023-11-21T11:08:54;101345.97;;;-4.34;100.00
59650;BME280;46162;57.568;25.814;2023-11-21T11:11:25;101347.53;;;-4.27;100.00
59650;BME280;46162;57.568;25.814;2023-11-21T11:13:55;101350.91;;;-4.22;100.00
59650;BME280;46162;57.568;25.814;2023-11-21T11:16:25;101346.41;;;-4.18;100.00
59650;BME280;46162;57.568;25.814;2023-11-21T11:18:55;101344.69;;;-4.19;100.00
59650;BME280;46162;57.568;25.814;2023-11-21T11:21:31;101353.47;;;-4.19;100.00
59650;BME280;46162;57.568;25.814;2023-11-21T11:24:28;101352.56;;;-4.18;100.00
59650;BME280;46162;57.568;25.814;2023-11-21T11:27:10;101353.47;;;-4.19;100.00
59650;BME280;46162;57.568;25.814;2023-11-21T11:29:51;101358.78;;;-4.20;100.00
59650;BME280;46162;57.568;25.814;2023-11-21T11:32:36;101363.16;;;-4.19;100.00
59650;BME280;46162;57.568;25.814;2023-11-21T11:35:14;101365.06;;;-4.26;100.00
59650;BME280;46162;57.568;25.814;2023-11-21T11:37:45;101366.94;;;-4.29;100.00
59650;BME280;46162;57.568;25.814;2023-11-21T11:40:14;101360.75;;;-4.28;100.00
59650;BME280;46162;57.568;25.814;2023-11-21T11:42:57;101370.59;;;-4.35;100.00
59650;BME280;46162;57.568;25.814;2023-11-21T11:45:32;101365.25;;;-4.32;100.00
59650;BME280;46162;57.568;25.814;2023-11-21T11:48:05;101364.31;;;-4.29;100.00
59650;BME280;46162;57.568;25.814;2023-11-21T11:50:34;101369.69;;;-4.34;100.00
59650;BME280;46162;57.568;25.814;2023-11-21T11:53:20;101368.88;;;-4.36;100.00
59650;BME280;46162;57.568;25.814;2023-11-21T11:55:58;101375.94;;;-4.38;100.00
59650;BME280;46162;57.568;25.814;2023-11-21T11:58:51;101368.88;;;-4.36;100.00
59650;BME280;46162;57.568;25.814;2023-11-21T12:01:21;101365.34;;;-4.35;100.00
59650;BME280;46162;57.568;25.814;2023-11-21T12:06:52;101367.25;;;-4.42;100.00
59650;BME280;46162;57.568;25.814;2023-11-21T12:09:23;101367.19;;;-4.40;100.00
59650;BME280;46162;57.568;25.814;2023-11-21T12:11:54;101372.41;;;-4.37;100.00
59650;BME280;46162;57.568;25.814;2023-11-21T12:14:25;101360.06;;;-4.35;100.00
59650;BME280;46162;57.568;25.814;2023-11-21T12:16:54;101361.88;;;-4.37;100.00
59650;BME280;46162;57.568;25.814;2023-11-21T12:19:23;101367.19;;;-4.40;100.00
59650;BME280;46162;57.568;25.814;2023-11-21T12:21:54;101370.84;;;-4.44;100.00
59650;BME280;46162;57.568;25.814;2023-11-21T12:24:23;101355.88;;;-4.44;100.00
59650;BME280;46162;57.568;25.814;2023-11-21T12:26:53;101367.19;;;-4.40;100.00
59650;BME280;46162;57.568;25.814;2023-11-21T12:29:22;101364.72;;;-4.45;100.00
59650;BME280;46162;57.568;25.814;2023-11-21T12:31:52;101369.09;;;-4.45;100.00
59650;BME280;46162;57.568;25.814;2023-11-21T12:34:21;101365.59;;;-4.46;100.00
59650;BME280;46162;57.568;25.814;2023-11-21T12:36:50;101369.91;;;-4.43;100.00
59650;BME280;46162;57.568;25.814;2023-11-21T12:39:22;101364.63;;;-4.42;100.00
59650;BME280;46162;57.568;25.814;2023-11-21T12:41:51;101370.75;;;-4.41;100.00
59650;BME280;46162;57.568;25.814;2023-11-21T12:44:20;101376.03;;;-4.41;100.00
59650;BME280;46162;57.568;25.814;2023-11-21T12:46:55;101378.66;;;-4.41;100.00
59650;BME280;46162;57.568;25.814;2023-11-21T12:49:24;101383.91;;;-4.40;100.00